createdAt,value
2023-04-27T00:00:56.245Z,78.84
2023-04-27T00:01:58.264Z,78.77
2023-04-27T00:03:00.383Z,78.81
2023-04-27T00:04:04.668Z,78.27
2023-04-27T00:05:07.036Z,79.09
2023-04-27T00:06:10.020Z,79.17
2023-04-27T00:07:12.419Z,78.56
2023-04-27T00:08:14.264Z,79.35
2023-04-27T00:09:16.517Z,79.75
2023-04-27T00:10:18.653Z,80.29
2023-04-27T00:11:20.482Z,80.43
2023-04-27T00:12:22.455Z,80.77
2023-04-27T00:13:24.327Z,80.26
2023-04-27T00:14:28.853Z,80.28
2023-04-27T00:15:31.208Z,79.82
2023-04-27T00:16:33.760Z,79.54
2023-04-27T00:17:36.388Z,79.56
2023-04-27T00:18:38.441Z,79.99
2023-04-27T00:19:42.189Z,79.68
2023-04-27T00:20:44.885Z,80.19
2023-04-27T00:21:46.910Z,79.26
2023-04-27T00:22:48.787Z,79.06
2023-04-27T00:23:50.716Z,79.33
2023-04-27T00:24:52.728Z,78.24
2023-04-27T00:25:54.676Z,79.71
2023-04-27T00:26:56.829Z,79.52
2023-04-27T00:27:58.749Z,79.02
2023-04-27T00:29:00.674Z,79.87
2023-04-27T00:30:02.601Z,80.21
2023-04-27T00:31:04.949Z,79.85
2023-04-27T00:32:07.973Z,79.83
2023-04-27T00:33:09.936Z,79.30
2023-04-27T00:34:11.842Z,79.08
2023-04-27T00:35:13.810Z,79.06
2023-04-27T00:36:15.704Z,78.49
2023-04-27T00:37:18.966Z,79.53
2023-04-27T00:38:20.963Z,78.45
2023-04-27T00:39:22.850Z,79.32
2023-04-27T00:40:24.795Z,79.09
2023-04-27T00:41:26.696Z,79.21
2023-04-27T00:42:28.564Z,80.23
2023-04-27T00:43:30.797Z,80.99
2023-04-27T00:44:32.835Z,80.30
2023-04-27T00:45:39.594Z,80.99
2023-04-27T00:46:41.538Z,81.23
2023-04-27T00:47:44.364Z,80.70
2023-04-27T00:48:46.647Z,80.06
2023-04-27T00:49:48.606Z,80.47
2023-04-27T00:50:50.785Z,80.24
2023-04-27T00:51:52.626Z,80.57
2023-04-27T00:52:54.811Z,80.49
2023-04-27T00:53:57.659Z,80.21
2023-04-27T00:54:59.753Z,79.12
2023-04-27T00:56:01.747Z,80.06
2023-04-27T00:57:04.277Z,79.96
2023-04-27T00:58:06.301Z,79.65
2023-04-27T00:59:08.095Z,79.66
2023-04-27T01:00:11.219Z,80.17
2023-04-27T01:01:13.234Z,79.72
2023-04-27T01:02:15.309Z,79.52
2023-04-27T01:03:17.775Z,79.46
2023-04-27T01:04:20.415Z,79.40
2023-04-27T01:05:22.499Z,79.93
2023-04-27T01:06:24.480Z,79.13
2023-04-27T01:07:27.219Z,79.75
2023-04-27T01:08:29.534Z,79.68
2023-04-27T01:09:31.632Z,79.82
2023-04-27T01:10:33.643Z,79.43
2023-04-27T01:11:35.795Z,80.06
2023-04-27T01:12:37.802Z,79.93
2023-04-27T01:13:39.588Z,80.09
2023-04-27T01:14:41.500Z,79.90
2023-04-27T01:15:46.280Z,80.64
2023-04-27T01:16:48.240Z,80.58
2023-04-27T01:17:50.202Z,80.58
2023-04-27T01:18:52.520Z,80.71
2023-04-27T01:19:55.890Z,80.69
2023-04-27T01:20:57.750Z,80.55
2023-04-27T01:21:59.673Z,80.61
2023-04-27T01:23:01.752Z,80.09
2023-04-27T01:24:04.942Z,80.75
2023-04-27T01:25:08.337Z,80.63
2023-04-27T01:26:13.805Z,80.16
2023-04-27T01:27:15.731Z,80.42
2023-04-27T01:28:17.851Z,79.85
2023-04-27T01:29:20.237Z,79.49
2023-04-27T01:30:25.170Z,79.60
2023-04-27T01:31:27.066Z,79.25
2023-04-27T01:32:29.251Z,79.22
2023-04-27T01:33:31.439Z,80.11
2023-04-27T01:34:33.258Z,80.05
2023-04-27T01:35:35.121Z,80.34
2023-04-27T01:36:37.054Z,80.41
2023-04-27T01:37:39.116Z,79.81
2023-04-27T01:38:41.361Z,79.83
2023-04-27T01:39:43.307Z,80.25
2023-04-27T01:40:45.147Z,79.69
2023-04-27T01:41:46.990Z,80.24
2023-04-27T01:42:48.909Z,80.04
2023-04-27T01:43:50.745Z,80.21
2023-04-27T01:44:52.679Z,79.71
2023-04-27T01:45:54.708Z,81.22
2023-04-27T01:46:56.608Z,80.24
2023-04-27T01:47:58.479Z,79.55
2023-04-27T01:49:00.391Z,79.32
2023-04-27T01:50:02.289Z,79.89
2023-04-27T01:51:04.379Z,79.17
2023-04-27T01:52:06.234Z,78.68
2023-04-27T01:53:08.083Z,79.50
2023-04-27T01:54:09.911Z,79.40
2023-04-27T01:55:11.878Z,79.38
2023-04-27T01:56:13.730Z,79.20
2023-04-27T01:57:16.873Z,78.64
2023-04-27T01:58:18.732Z,78.65
2023-04-27T01:59:20.563Z,79.11
2023-04-27T02:00:22.493Z,79.19
2023-04-27T02:01:24.403Z,79.42
2023-04-27T02:02:26.547Z,79.61
2023-04-27T02:03:28.762Z,79.04
2023-04-27T02:04:30.917Z,79.60
2023-04-27T02:05:32.803Z,80.41
2023-04-27T02:06:34.701Z,79.59
2023-04-27T02:07:36.587Z,79.46
2023-04-27T02:08:38.466Z,79.80
2023-04-27T02:09:40.459Z,80.10
2023-04-27T02:10:42.352Z,79.53
2023-04-27T02:11:44.336Z,79.92
2023-04-27T02:12:46.215Z,79.73
2023-04-27T02:13:49.153Z,79.97
2023-04-27T02:14:50.979Z,80.19
2023-04-27T02:15:52.986Z,79.89
2023-04-27T02:16:54.869Z,79.89
2023-04-27T02:17:57.614Z,79.77
2023-04-27T02:18:59.916Z,79.64
2023-04-27T02:20:01.897Z,79.24
2023-04-27T02:21:08.409Z,79.54
2023-04-27T02:22:10.342Z,79.90
2023-04-27T02:23:12.638Z,79.00
2023-04-27T02:24:14.490Z,79.78
2023-04-27T02:25:16.822Z,79.23
2023-04-27T02:26:19.767Z,80.08
2023-04-27T02:27:21.749Z,79.32
2023-04-27T02:28:24.271Z,79.66
2023-04-27T02:29:30.103Z,78.99
2023-04-27T02:30:32.396Z,79.16
2023-04-27T02:31:34.283Z,79.36
2023-04-27T02:32:36.291Z,78.59
2023-04-27T02:33:38.140Z,79.75
2023-04-27T02:34:40.107Z,80.52
2023-04-27T02:35:42.028Z,80.84
2023-04-27T02:36:43.925Z,81.35
2023-04-27T02:37:45.985Z,80.75
2023-04-27T02:38:47.867Z,81.70
2023-04-27T02:39:49.771Z,82.61
2023-04-27T02:40:55.360Z,82.23
2023-04-27T02:41:57.244Z,82.30
2023-04-27T02:42:59.125Z,82.70
2023-04-27T02:44:00.993Z,83.33
2023-04-27T02:45:02.972Z,82.81
2023-04-27T02:46:05.340Z,83.26
2023-04-27T02:47:07.334Z,83.34
2023-04-27T02:48:09.748Z,84.21
2023-04-27T02:49:11.819Z,84.23
2023-04-27T02:50:14.214Z,83.59
2023-04-27T02:51:16.076Z,83.96
2023-04-27T02:52:17.961Z,83.59
2023-04-27T02:53:19.851Z,83.66
2023-04-27T02:54:21.688Z,82.84
2023-04-27T02:55:23.639Z,83.83
2023-04-27T02:56:25.448Z,83.76
2023-04-27T02:57:28.053Z,83.10
2023-04-27T02:58:29.931Z,83.45
2023-04-27T02:59:31.786Z,83.11
2023-04-27T03:00:33.630Z,82.18
2023-04-27T03:01:35.635Z,82.54
2023-04-27T03:02:37.742Z,81.99
2023-04-27T03:03:40.089Z,81.90
2023-04-27T03:04:42.381Z,81.07
2023-04-27T03:05:44.388Z,81.00
2023-04-27T03:06:46.307Z,82.11
2023-04-27T03:07:48.409Z,82.33
2023-04-27T03:08:50.242Z,82.06
2023-04-27T03:09:52.124Z,82.15
2023-04-27T03:10:53.952Z,82.24
2023-04-27T03:11:56.304Z,81.95
2023-04-27T03:12:58.199Z,81.54
2023-04-27T03:14:00.115Z,82.53
2023-04-27T03:15:02.048Z,82.13
2023-04-27T03:16:04.071Z,81.31
2023-04-27T03:17:06.026Z,81.55
2023-04-27T03:18:07.964Z,82.35
2023-04-27T03:19:09.924Z,82.06
2023-04-27T03:20:12.598Z,82.58
2023-04-27T03:21:14.689Z,81.94
2023-04-27T03:22:16.667Z,82.18
2023-04-27T03:23:18.536Z,82.44
2023-04-27T03:24:20.384Z,82.55
2023-04-27T03:25:22.624Z,82.69
2023-04-27T03:26:24.477Z,82.73
2023-04-27T03:27:26.350Z,81.40
2023-04-27T03:28:28.320Z,81.61
2023-04-27T03:29:30.989Z,82.31
2023-04-27T03:30:32.945Z,81.30
2023-04-27T03:31:34.927Z,81.23
2023-04-27T03:32:36.821Z,82.13
2023-04-27T03:33:39.378Z,81.40
2023-04-27T03:34:41.675Z,82.49
2023-04-27T03:35:43.646Z,82.03
2023-04-27T03:36:45.521Z,82.40
2023-04-27T03:37:47.404Z,82.09
2023-04-27T03:38:49.284Z,82.61
2023-04-27T03:39:51.338Z,82.73
2023-04-27T03:40:54.286Z,82.48
2023-04-27T03:41:56.084Z,82.45
2023-04-27T03:42:59.151Z,82.47
2023-04-27T03:44:01.144Z,82.14
2023-04-27T03:45:04.464Z,81.23
2023-04-27T03:46:06.587Z,81.71
2023-04-27T03:47:09.956Z,81.38
2023-04-27T03:48:11.928Z,81.94
2023-04-27T03:49:14.054Z,81.94
2023-04-27T03:50:16.641Z,81.37
2023-04-27T03:51:18.770Z,82.19
2023-04-27T03:52:20.593Z,81.00
2023-04-27T03:53:23.049Z,82.44
2023-04-27T03:54:24.928Z,81.65
2023-04-27T03:55:27.083Z,81.96
2023-04-27T03:56:29.029Z,80.88
2023-04-27T03:57:30.872Z,81.66
2023-04-27T03:58:32.753Z,81.48
2023-04-27T03:59:34.609Z,81.05
2023-04-27T04:00:37.551Z,80.86
2023-04-27T04:01:40.334Z,81.12
2023-04-27T04:02:42.571Z,80.84
2023-04-27T04:03:45.102Z,80.91
2023-04-27T04:04:47.568Z,80.49
2023-04-27T04:05:49.563Z,80.43
2023-04-27T04:06:51.427Z,81.42
2023-04-27T04:07:53.492Z,81.03
2023-04-27T04:08:55.826Z,80.64
2023-04-27T04:09:57.715Z,80.94
2023-04-27T04:10:59.677Z,80.97
2023-04-27T04:12:02.219Z,81.71
2023-04-27T04:13:04.107Z,81.73
2023-04-27T04:14:06.261Z,80.89
2023-04-27T04:15:08.402Z,81.59
2023-04-27T04:16:10.442Z,81.32
2023-04-27T04:17:12.416Z,80.79
2023-04-27T04:18:14.323Z,81.91
2023-04-27T04:19:16.578Z,81.67
2023-04-27T04:20:18.783Z,82.38
2023-04-27T04:21:21.039Z,82.30
2023-04-27T04:22:23.085Z,81.97
2023-04-27T04:23:24.965Z,81.98
2023-04-27T04:24:26.870Z,81.17
2023-04-27T04:25:28.854Z,81.41
2023-04-27T04:26:31.123Z,81.68
2023-04-27T04:27:33.850Z,82.05
2023-04-27T04:28:37.486Z,82.78
2023-04-27T04:29:39.545Z,83.45
2023-04-27T04:30:41.526Z,83.43
2023-04-27T04:31:43.607Z,83.69
2023-04-27T04:32:45.586Z,83.14
2023-04-27T04:33:47.483Z,84.14
2023-04-27T04:34:51.543Z,84.10
2023-04-27T04:35:54.044Z,83.51
2023-04-27T04:36:57.969Z,82.92
2023-04-27T04:38:00.218Z,82.25
2023-04-27T04:39:02.114Z,82.38
2023-04-27T04:40:09.448Z,83.49
2023-04-27T04:41:11.386Z,82.80
2023-04-27T04:42:13.269Z,82.47
2023-04-27T04:43:15.230Z,82.55
2023-04-27T04:44:17.221Z,83.28
2023-04-27T04:45:19.301Z,83.10
2023-04-27T04:46:22.588Z,83.09
2023-04-27T04:47:24.565Z,83.71
2023-04-27T04:48:26.452Z,83.76
2023-04-27T04:49:28.394Z,84.13
2023-04-27T04:50:30.363Z,83.71
2023-04-27T04:51:32.266Z,83.26
2023-04-27T04:52:34.797Z,83.56
2023-04-27T04:53:37.379Z,83.33
2023-04-27T04:54:39.296Z,84.17
2023-04-27T04:55:41.366Z,83.49
2023-04-27T04:56:43.279Z,83.59
2023-04-27T04:57:45.123Z,83.34
2023-04-27T04:58:46.987Z,83.62
2023-04-27T04:59:48.861Z,84.60
2023-04-27T05:00:50.922Z,83.91
2023-04-27T05:01:56.056Z,83.70
2023-04-27T05:02:58.695Z,84.02
2023-04-27T05:04:01.359Z,83.79
2023-04-27T05:05:03.829Z,82.80
2023-04-27T05:06:05.948Z,83.24
2023-04-27T05:07:07.956Z,83.57
2023-04-27T05:08:09.931Z,83.42
2023-04-27T05:09:12.551Z,83.30
2023-04-27T05:10:14.618Z,83.05
2023-04-27T05:11:16.524Z,82.00
2023-04-27T05:12:18.400Z,83.03
2023-04-27T05:13:20.965Z,82.68
2023-04-27T05:14:22.848Z,83.39
2023-04-27T05:15:24.716Z,83.36
2023-04-27T05:16:26.982Z,83.72
2023-04-27T05:17:28.924Z,83.46
2023-04-27T05:18:30.806Z,83.33
2023-04-27T05:19:32.747Z,83.33
2023-04-27T05:20:38.419Z,82.74
2023-04-27T05:21:40.322Z,83.11
2023-04-27T05:22:42.239Z,82.95
2023-04-27T05:23:44.140Z,83.13
2023-04-27T05:24:46.013Z,82.63
2023-04-27T05:25:47.910Z,82.43
2023-04-27T05:26:50.371Z,83.09
2023-04-27T05:27:52.512Z,81.91
2023-04-27T05:28:54.399Z,82.50
2023-04-27T05:29:56.296Z,83.41
2023-04-27T05:30:58.188Z,83.71
2023-04-27T05:32:00.361Z,84.18
2023-04-27T05:33:02.777Z,83.41
2023-04-27T05:34:04.771Z,83.84
2023-04-27T05:35:06.747Z,84.51
2023-04-27T05:36:08.854Z,84.85
2023-04-27T05:37:11.044Z,84.45
2023-04-27T05:38:17.728Z,83.80
2023-04-27T05:39:19.636Z,84.40
2023-04-27T05:40:22.144Z,84.55
2023-04-27T05:41:24.126Z,84.41
2023-04-27T05:42:25.972Z,83.91
2023-04-27T05:43:28.189Z,83.17
2023-04-27T05:44:30.127Z,83.80
2023-04-27T05:45:32.014Z,84.35
2023-04-27T05:46:34.891Z,84.43
2023-04-27T05:47:38.001Z,84.19
2023-04-27T05:48:39.955Z,84.42
2023-04-27T05:49:41.821Z,83.37
2023-04-27T05:50:43.798Z,83.82
2023-04-27T05:51:45.765Z,82.67
2023-04-27T05:52:47.696Z,82.31
2023-04-27T05:53:49.708Z,82.04
2023-04-27T05:54:51.774Z,82.42
2023-04-27T05:55:54.144Z,82.23
2023-04-27T05:56:56.029Z,81.52
2023-04-27T05:58:06.943Z,81.77
2023-04-27T05:59:10.052Z,81.24
2023-04-27T06:00:12.969Z,81.01
2023-04-27T06:01:14.895Z,81.05
2023-04-27T06:02:16.965Z,80.95
2023-04-27T06:03:19.083Z,80.67
2023-04-27T06:04:21.455Z,80.66
2023-04-27T06:05:23.578Z,80.62
2023-04-27T06:06:25.454Z,81.36
2023-04-27T06:07:27.692Z,80.76
2023-04-27T06:08:30.120Z,81.63
2023-04-27T06:09:32.155Z,80.99
2023-04-27T06:10:34.052Z,80.85
2023-04-27T06:11:35.996Z,80.82
2023-04-27T06:12:38.238Z,80.95
2023-04-27T06:13:40.152Z,81.51
2023-04-27T06:14:42.346Z,81.55
2023-04-27T06:15:44.378Z,82.57
2023-04-27T06:16:46.426Z,82.11
2023-04-27T06:17:48.508Z,81.92
2023-04-27T06:18:51.002Z,81.56
2023-04-27T06:19:52.893Z,81.58
2023-04-27T06:20:59.050Z,81.19
2023-04-27T06:22:00.992Z,80.74
2023-04-27T06:23:03.015Z,80.98
2023-04-27T06:24:04.912Z,80.57
2023-04-27T06:25:07.099Z,81.06
2023-04-27T06:26:09.019Z,80.62
2023-04-27T06:27:11.044Z,80.17
2023-04-27T06:28:12.942Z,79.97
2023-04-27T06:29:15.046Z,80.10
2023-04-27T06:30:17.400Z,79.51
2023-04-27T06:31:19.405Z,80.44
2023-04-27T06:32:21.328Z,81.01
2023-04-27T06:33:23.198Z,80.85
2023-04-27T06:34:25.092Z,80.80
2023-04-27T06:35:27.072Z,80.73
2023-04-27T06:36:28.994Z,80.10
2023-04-27T06:37:30.985Z,79.25
2023-04-27T06:38:33.193Z,79.52
2023-04-27T06:39:35.603Z,79.25
2023-04-27T06:40:37.694Z,79.18
2023-04-27T06:41:39.628Z,78.59
2023-04-27T06:42:41.668Z,78.24
2023-04-27T06:43:43.534Z,78.45
2023-04-27T06:44:45.528Z,78.65
2023-04-27T06:45:47.469Z,78.17
2023-04-27T06:46:49.447Z,77.46
2023-04-27T06:47:51.478Z,77.11
2023-04-27T06:48:53.603Z,77.96
2023-04-27T06:49:55.493Z,77.59
2023-04-27T06:50:57.390Z,76.96
2023-04-27T06:51:59.210Z,77.23
2023-04-27T06:53:01.190Z,77.06
2023-04-27T06:54:04.089Z,76.78
2023-04-27T06:55:06.376Z,77.66
2023-04-27T06:56:11.853Z,77.50
2023-04-27T06:57:13.759Z,77.64
2023-04-27T06:58:15.649Z,77.56
2023-04-27T06:59:17.708Z,77.57
2023-04-27T07:00:20.103Z,77.98
2023-04-27T07:01:21.979Z,77.60
2023-04-27T07:02:25.696Z,78.03
2023-04-27T07:03:27.710Z,78.19
2023-04-27T07:04:30.630Z,77.57
2023-04-27T07:05:34.075Z,78.00
2023-04-27T07:06:35.968Z,78.75
2023-04-27T07:07:37.934Z,79.10
2023-04-27T07:08:39.748Z,79.24
2023-04-27T07:09:41.679Z,78.87
2023-04-27T07:10:43.684Z,79.10
2023-04-27T07:11:45.560Z,78.33
2023-04-27T07:12:47.496Z,78.55
2023-04-27T07:13:49.419Z,78.56
2023-04-27T07:14:51.374Z,79.03
2023-04-27T07:15:59.614Z,79.81
2023-04-27T07:17:01.799Z,79.47
2023-04-27T07:18:04.382Z,78.12
2023-04-27T07:19:06.422Z,78.79
2023-04-27T07:20:08.911Z,79.81
2023-04-27T07:21:11.454Z,79.95
2023-04-27T07:22:13.466Z,79.87
2023-04-27T07:23:15.496Z,79.95
2023-04-27T07:24:17.307Z,79.35
2023-04-27T07:25:19.976Z,79.13
2023-04-27T07:26:24.234Z,78.54
2023-04-27T07:27:26.845Z,78.50
2023-04-27T07:28:29.724Z,78.80
2023-04-27T07:29:32.732Z,77.94
2023-04-27T07:30:37.043Z,78.35
2023-04-27T07:31:38.882Z,78.18
2023-04-27T07:32:42.197Z,77.78
2023-04-27T07:33:44.595Z,77.83
2023-04-27T07:34:53.314Z,77.22
2023-04-27T07:35:56.782Z,76.85
2023-04-27T07:36:58.845Z,77.19
2023-04-27T07:38:03.780Z,76.77
2023-04-27T07:39:06.709Z,76.52
2023-04-27T07:40:14.711Z,76.61
2023-04-27T07:41:16.972Z,76.18
2023-04-27T07:42:19.389Z,76.06
2023-04-27T07:43:23.309Z,75.86
2023-04-27T07:44:25.274Z,75.00
2023-04-27T07:45:32.327Z,75.40
2023-04-27T07:46:34.578Z,75.53
2023-04-27T07:47:36.555Z,75.50
2023-04-27T07:48:38.529Z,76.23
2023-04-27T07:49:40.646Z,76.20
2023-04-27T07:50:42.582Z,76.16
2023-04-27T07:51:44.549Z,76.03
2023-04-27T07:52:46.418Z,76.16
2023-04-27T07:53:48.445Z,75.68
2023-04-27T07:54:50.441Z,74.87
2023-04-27T07:55:52.351Z,75.29
2023-04-27T07:56:54.450Z,75.27
2023-04-27T07:57:57.375Z,74.12
2023-04-27T07:58:59.386Z,74.92
2023-04-27T08:00:01.286Z,74.77
2023-04-27T08:01:03.233Z,74.63
2023-04-27T08:02:18.467Z,74.49
2023-04-27T08:03:21.000Z,74.37
2023-04-27T08:04:23.213Z,74.38
2023-04-27T08:05:25.821Z,74.42
2023-04-27T08:06:29.562Z,75.59
2023-04-27T08:07:32.824Z,74.59
2023-04-27T08:08:34.865Z,73.94
2023-04-27T08:09:36.870Z,74.52
2023-04-27T08:10:38.814Z,74.09
2023-04-27T08:11:40.816Z,74.49
2023-04-27T08:12:42.737Z,74.44
2023-04-27T08:13:44.728Z,74.48
2023-04-27T08:14:47.390Z,74.07
2023-04-27T08:15:49.396Z,73.18
2023-04-27T08:16:52.305Z,73.36
2023-04-27T08:17:54.270Z,72.91
2023-04-27T08:18:57.560Z,72.58
2023-04-27T08:20:00.896Z,71.68
2023-04-27T08:21:02.955Z,71.69
2023-04-27T08:22:04.907Z,72.05
2023-04-27T08:23:06.757Z,70.82
2023-04-27T08:24:08.790Z,71.46
2023-04-27T08:25:10.760Z,70.84
2023-04-27T08:26:16.438Z,70.93
2023-04-27T08:27:18.308Z,71.58
2023-04-27T08:28:20.210Z,71.72
2023-04-27T08:29:28.021Z,71.64
2023-04-27T08:30:30.770Z,71.38
2023-04-27T08:31:32.837Z,69.53
2023-04-27T08:32:34.785Z,68.59
2023-04-27T08:33:36.764Z,69.28
2023-04-27T08:34:38.632Z,68.41
2023-04-27T08:35:40.812Z,69.76
2023-04-27T08:36:42.799Z,69.76
2023-04-27T08:37:44.669Z,68.61
2023-04-27T08:38:46.776Z,68.72
2023-04-27T08:39:49.095Z,68.87
2023-04-27T08:40:51.063Z,67.17
2023-04-27T08:41:52.957Z,67.59
2023-04-27T08:42:56.420Z,67.00
2023-04-27T08:43:59.635Z,67.60
2023-04-27T08:45:01.663Z,66.22
2023-04-27T08:46:03.621Z,64.50
2023-04-27T08:47:06.034Z,63.54
2023-04-27T08:48:08.960Z,63.66
2023-04-27T08:49:11.194Z,64.01
2023-04-27T08:50:13.335Z,63.80
2023-04-27T08:51:15.605Z,63.27
2023-04-27T08:52:17.656Z,64.01
2023-04-27T08:53:23.074Z,61.95
2023-04-27T08:54:24.930Z,62.31
2023-04-27T08:55:26.779Z,63.69
2023-04-27T08:56:29.493Z,62.22
2023-04-27T08:57:31.537Z,61.67
2023-04-27T08:58:37.246Z,59.29
2023-04-27T08:59:42.452Z,60.98
2023-04-27T09:00:45.511Z,60.88
2023-04-27T09:01:49.476Z,58.77
2023-04-27T09:02:52.015Z,60.35
2023-04-27T09:03:58.349Z,61.83
2023-04-27T09:05:00.705Z,61.54
2023-04-27T09:06:06.071Z,58.71
2023-04-27T09:07:12.051Z,58.21
2023-04-27T09:08:13.957Z,60.06
2023-04-27T09:09:22.649Z,61.15
2023-04-27T09:10:24.937Z,59.90
2023-04-27T09:11:31.775Z,60.93
2023-04-27T09:12:33.724Z,61.22
2023-04-27T09:13:36.795Z,60.50
2023-04-27T09:14:39.162Z,61.44
2023-04-27T09:15:46.438Z,59.90
2023-04-27T09:17:00.383Z,61.77
2023-04-27T09:18:02.479Z,61.25
2023-04-27T09:19:04.333Z,60.23
2023-04-27T09:20:13.202Z,59.18
2023-04-27T09:21:22.786Z,58.30
2023-04-27T09:22:24.663Z,59.46
2023-04-27T09:23:30.012Z,59.89
2023-04-27T09:24:31.908Z,58.59
2023-04-27T09:25:33.966Z,60.09
2023-04-27T09:26:36.074Z,57.74
2023-04-27T09:27:44.255Z,56.68
2023-04-27T09:28:48.627Z,57.32
2023-04-27T09:29:50.634Z,58.20
2023-04-27T09:30:54.341Z,56.53
2023-04-27T09:31:56.208Z,54.78
2023-04-27T09:33:01.355Z,54.58
2023-04-27T09:34:04.079Z,55.60
2023-04-27T09:35:16.209Z,55.16
2023-04-27T09:36:18.359Z,55.49
2023-04-27T09:37:20.503Z,55.62
2023-04-27T09:38:23.045Z,56.15
2023-04-27T09:39:25.426Z,56.40
2023-04-27T09:40:29.814Z,54.07
2023-04-27T09:41:32.659Z,54.32
2023-04-27T09:42:34.690Z,54.55
2023-04-27T09:43:37.114Z,55.17
2023-04-27T09:44:39.167Z,53.62
2023-04-27T09:45:41.348Z,54.35
2023-04-27T09:46:45.882Z,54.25
2023-04-27T09:47:48.522Z,54.74
2023-04-27T09:48:51.094Z,54.97
2023-04-27T09:49:53.087Z,54.58
2023-04-27T09:50:55.074Z,53.10
2023-04-27T09:51:59.081Z,53.70
2023-04-27T09:53:01.072Z,52.75
2023-04-27T09:54:04.404Z,53.44
2023-04-27T09:55:09.427Z,52.54
2023-04-27T09:56:29.774Z,51.81
2023-04-27T09:57:36.997Z,50.57
2023-04-27T09:58:49.077Z,52.55
2023-04-27T09:59:51.109Z,52.47
2023-04-27T10:01:01.107Z,52.46
2023-04-27T10:02:17.054Z,53.42
2023-04-27T10:03:34.619Z,51.35
2023-04-27T10:04:45.987Z,53.59
2023-04-27T10:05:48.847Z,52.33
2023-04-27T10:06:57.797Z,52.47
2023-04-27T10:08:01.124Z,52.71
2023-04-27T10:09:06.663Z,51.18
2023-04-27T10:10:17.110Z,52.45
2023-04-27T10:11:23.262Z,52.81
2023-04-27T10:12:28.960Z,52.46
2023-04-27T10:13:31.924Z,50.57
2023-04-27T10:14:33.866Z,51.87
2023-04-27T10:15:40.271Z,51.61
2023-04-27T10:16:49.208Z,51.32
2023-04-27T10:17:53.439Z,50.29
2023-04-27T10:18:55.989Z,50.65
2023-04-27T10:20:01.898Z,52.40
2023-04-27T10:21:11.056Z,52.48
2023-04-27T10:22:13.054Z,50.98
2023-04-27T10:23:23.304Z,51.27
2023-04-27T10:24:38.316Z,51.69
2023-04-27T10:25:40.992Z,52.69
2023-04-27T10:26:46.790Z,51.13
2023-04-27T10:27:50.201Z,50.78
2023-04-27T10:28:59.968Z,50.64
2023-04-27T10:30:09.062Z,51.95
2023-04-27T10:31:14.640Z,52.24
2023-04-27T10:32:21.646Z,51.40
2023-04-27T10:33:23.725Z,51.17
2023-04-27T10:34:28.379Z,50.34
2023-04-27T10:35:53.269Z,51.21
2023-04-27T10:37:04.866Z,50.05
2023-04-27T10:38:17.527Z,50.97
2023-04-27T10:39:29.908Z,48.59
2023-04-27T10:40:38.854Z,48.94
2023-04-27T10:41:49.108Z,50.23
2023-04-27T10:42:51.057Z,49.07
2023-04-27T10:43:52.953Z,49.96
2023-04-27T10:44:57.445Z,50.11
2023-04-27T10:46:10.660Z,49.68
2023-04-27T10:47:13.747Z,45.82
2023-04-27T10:48:16.275Z,48.03
2023-04-27T10:49:18.165Z,48.54
2023-04-27T10:50:20.198Z,49.73
2023-04-27T10:51:23.025Z,49.52
2023-04-27T10:52:24.876Z,48.35
2023-04-27T10:53:27.291Z,47.31
2023-04-27T10:54:29.631Z,46.48
2023-04-27T10:55:31.963Z,46.05
2023-04-27T10:56:33.857Z,47.06
2023-04-27T10:57:35.722Z,46.38
2023-04-27T10:58:48.280Z,46.61
2023-04-27T10:59:55.741Z,45.43
2023-04-27T11:00:57.633Z,46.06
2023-04-27T11:01:59.633Z,47.34
2023-04-27T11:03:18.850Z,47.93
2023-04-27T11:04:20.985Z,49.03
2023-04-27T11:05:25.158Z,45.95
2023-04-27T11:06:28.621Z,46.51
2023-04-27T11:07:30.592Z,47.25
2023-04-27T11:08:34.342Z,46.23
2023-04-27T11:09:38.137Z,47.37
2023-04-27T11:10:41.650Z,44.76
2023-04-27T11:11:46.644Z,44.59
2023-04-27T11:12:48.729Z,44.24
2023-04-27T11:13:53.176Z,42.61
2023-04-27T11:14:58.771Z,46.14
2023-04-27T11:16:00.859Z,43.84
2023-04-27T11:17:04.544Z,44.21
2023-04-27T11:18:07.054Z,44.05
2023-04-27T11:19:09.001Z,43.33
2023-04-27T11:20:11.120Z,43.94
2023-04-27T11:21:14.624Z,44.80
2023-04-27T11:22:19.779Z,43.64
2023-04-27T11:23:29.283Z,42.25
2023-04-27T11:24:31.319Z,42.85
2023-04-27T11:25:33.268Z,44.40
2023-04-27T11:26:35.147Z,44.59
2023-04-27T11:27:38.979Z,43.11
2023-04-27T11:28:44.765Z,41.04
2023-04-27T11:29:46.910Z,42.27
2023-04-27T11:30:55.778Z,40.81
2023-04-27T11:31:57.824Z,40.00
2023-04-27T11:32:59.954Z,41.16
2023-04-27T11:34:01.861Z,42.89
2023-04-27T11:35:04.033Z,42.43
2023-04-27T11:36:16.248Z,43.01
2023-04-27T11:37:25.170Z,39.85
2023-04-27T11:38:33.110Z,43.08
2023-04-27T11:39:38.774Z,40.43
2023-04-27T11:40:42.175Z,42.01
2023-04-27T11:41:46.639Z,39.16
2023-04-27T11:42:56.848Z,39.67
2023-04-27T11:44:04.502Z,40.89
2023-04-27T11:45:06.946Z,39.59
2023-04-27T11:46:11.251Z,41.89
2023-04-27T11:47:18.824Z,41.84
2023-04-27T11:48:23.316Z,41.99
2023-04-27T11:49:26.139Z,40.13
2023-04-27T11:50:28.050Z,40.57
2023-04-27T11:51:31.632Z,38.74
2023-04-27T11:52:34.557Z,39.24
2023-04-27T11:53:37.155Z,40.79
2023-04-27T11:54:39.064Z,39.70
2023-04-27T11:55:41.832Z,38.47
2023-04-27T11:56:43.850Z,41.21
2023-04-27T11:57:45.740Z,39.85
2023-04-27T11:58:47.908Z,40.38
2023-04-27T11:59:49.790Z,38.34
2023-04-27T12:00:51.799Z,37.76
2023-04-27T12:01:53.792Z,41.04
2023-04-27T12:02:55.889Z,42.45
2023-04-27T12:04:00.716Z,38.24
2023-04-27T12:05:05.039Z,37.82
2023-04-27T12:06:27.249Z,39.36
2023-04-27T12:07:29.110Z,37.03
2023-04-27T12:08:31.382Z,39.33
2023-04-27T12:09:33.281Z,37.82
2023-04-27T12:10:35.202Z,37.20
2023-04-27T12:11:37.146Z,36.85
2023-04-27T12:12:39.069Z,37.94
2023-04-27T12:13:41.087Z,37.99
2023-04-27T12:14:42.969Z,38.14
2023-04-27T12:15:44.956Z,39.22
2023-04-27T12:16:47.554Z,38.29
2023-04-27T12:17:49.527Z,38.84
2023-04-27T12:18:51.600Z,39.15
2023-04-27T12:19:53.454Z,34.52
2023-04-27T12:20:55.408Z,37.47
2023-04-27T12:21:58.478Z,37.53
2023-04-27T12:23:00.491Z,36.01
2023-04-27T12:24:02.355Z,35.38
2023-04-27T12:25:05.055Z,36.56
2023-04-27T12:26:07.039Z,37.66
2023-04-27T12:27:08.963Z,36.19
2023-04-27T12:28:12.386Z,35.52
2023-04-27T12:29:14.264Z,36.02
2023-04-27T12:30:16.166Z,36.85
2023-04-27T12:31:23.607Z,38.01
2023-04-27T12:32:27.874Z,36.35
2023-04-27T12:33:30.127Z,35.73
2023-04-27T12:34:32.444Z,38.82
2023-04-27T12:35:34.342Z,36.52
2023-04-27T12:36:36.587Z,35.67
2023-04-27T12:37:38.521Z,38.28
2023-04-27T12:38:40.423Z,33.44
2023-04-27T12:39:42.385Z,35.21
2023-04-27T12:40:44.273Z,35.78
2023-04-27T12:41:47.321Z,36.77
2023-04-27T12:42:49.756Z,35.51
2023-04-27T12:43:51.641Z,38.44
2023-04-27T12:44:54.157Z,37.08
2023-04-27T12:45:56.614Z,37.64
2023-04-27T12:46:58.534Z,36.58
2023-04-27T12:48:03.488Z,36.25
2023-04-27T12:49:09.136Z,35.07
2023-04-27T12:50:11.104Z,36.26
2023-04-27T12:51:13.470Z,36.47
2023-04-27T12:52:15.366Z,36.43
2023-04-27T12:53:17.497Z,36.59
2023-04-27T12:54:19.414Z,35.84
2023-04-27T12:55:32.195Z,36.27
2023-04-27T12:56:35.762Z,37.27
2023-04-27T12:57:37.682Z,35.26
2023-04-27T12:58:40.289Z,36.49
2023-04-27T12:59:42.302Z,37.45
2023-04-27T13:00:44.374Z,36.74
2023-04-27T13:01:46.722Z,35.84
2023-04-27T13:02:48.768Z,36.07
2023-04-27T13:03:54.248Z,36.19
2023-04-27T13:04:56.576Z,37.39
2023-04-27T13:05:58.511Z,34.82
2023-04-27T13:07:01.510Z,36.21
2023-04-27T13:08:03.469Z,36.86
2023-04-27T13:09:05.652Z,34.09
2023-04-27T13:10:08.156Z,35.81
2023-04-27T13:11:10.084Z,35.24
2023-04-27T13:12:12.435Z,37.58
2023-04-27T13:13:14.361Z,36.23
2023-04-27T13:14:16.625Z,35.48
2023-04-27T13:15:18.813Z,36.33
2023-04-27T13:16:22.835Z,36.09
2023-04-27T13:17:24.848Z,34.99
2023-04-27T13:18:26.708Z,36.22
2023-04-27T13:19:28.872Z,34.84
2023-04-27T13:20:30.784Z,36.47
2023-04-27T13:21:33.524Z,37.49
2023-04-27T13:22:35.527Z,34.17
2023-04-27T13:23:37.444Z,35.85
2023-04-27T13:24:39.341Z,35.48
2023-04-27T13:25:41.392Z,35.62
2023-04-27T13:26:43.412Z,37.35
2023-04-27T13:27:45.286Z,37.27
2023-04-27T13:28:47.221Z,37.07
2023-04-27T13:29:51.446Z,36.92
2023-04-27T13:30:53.386Z,36.53
2023-04-27T13:31:56.362Z,38.14